Time;durP1;ratioP1;P1;durP2;ratioP2;P2;SDS_P1;SDS_P2;PMS_P1;PMS_P2;Temp;Humidity;BMP_temperature;BMP_pressure;BME280_temperature;BME280_humidity;BME280_pressure;Samples;Min_cycle;Max_cycle;Signal;HPM_P1;HPM_P2
2022/03/30 00:01:07;;;;;;;9.50;4.10;;;;;;;;;;5077338;28;20033;-35
2022/03/30 00:03:33;;;;;;;7.95;3.42;;;;;;;;;;5077227;28;20039;-35
2022/03/30 00:05:58;;;;;;;31.10;5.35;;;;;;;;;;5077233;28;20024;-35
2022/03/30 00:08:23;;;;;;;7.00;3.05;;;;;;;;;;5077369;28;20020;-35
2022/03/30 00:10:49;;;;;;;7.05;3.25;;;;;;;;;;5076359;28;20027;-35
2022/03/30 00:13:15;;;;;;;7.05;3.03;;;;;;;;;;5077371;28;20523;-35
2022/03/30 00:15:41;;;;;;;7.00;3.15;;;;;;;;;;5077218;28;20436;-35
2022/03/30 00:18:06;;;;;;;11.60;4.05;;;;;;;;;;5074741;28;20055;-35
2022/03/30 00:20:31;;;;;;;11.50;3.65;;;;;;;;;;5074023;28;20437;-35
2022/03/30 00:22:57;;;;;;;5.10;3.90;;;;;;;;;;5074060;28;20060;-35
2022/03/30 00:25:22;;;;;;;4.93;3.45;;;;;;;;;;5074026;28;20496;-35
2022/03/30 00:27:48;;;;;;;5.22;3.08;;;;;;;;;;5073889;28;20412;-35
2022/03/30 00:30:14;;;;;;;6.10;3.17;;;;;;;;;;5072498;28;20033;-35
2022/03/30 00:32:40;;;;;;;13.48;3.65;;;;;;;;;;5073842;28;20050;-35
2022/03/30 00:35:06;;;;;;;8.57;3.72;;;;;;;;;;5073634;28;20107;-35
2022/03/30 00:37:32;;;;;;;9.85;3.90;;;;;;;;;;5073818;28;20032;-35
2022/03/30 00:39:57;;;;;;;10.20;3.70;;;;;;;;;;5073606;28;20028;-35
2022/03/30 00:42:24;;;;;;;3.90;2.97;;;;;;;;;;5073725;28;20028;-35
2022/03/30 00:44:50;;;;;;;7.40;3.42;;;;;;;;;;5073985;28;20161;-35
2022/03/30 00:47:16;;;;;;;7.10;4.68;;;;;;;;;;5073738;28;20103;-35
2022/03/30 00:49:42;;;;;;;10.45;3.60;;;;;;;;;;5072269;28;20031;-35
2022/03/30 00:52:08;;;;;;;7.85;3.47;;;;;;;;;;5073236;28;20020;-35
2022/03/30 00:54:34;;;;;;;13.15;3.63;;;;;;;;;;5073423;28;20029;-36
2022/03/30 00:56:59;;;;;;;10.40;3.80;;;;;;;;;;5073407;28;20027;-35
2022/03/30 00:59:25;;;;;;;8.80;3.58;;;;;;;;;;5073365;28;20021;-35
2022/03/30 01:01:50;;;;;;;11.15;4.05;;;;;;;;;;5073251;28;20055;-35
2022/03/30 01:04:16;;;;;;;6.25;3.65;;;;;;;;;;5073113;28;20037;-35
2022/03/30 01:06:41;;;;;;;5.93;3.83;;;;;;;;;;5073377;28;20021;-35
2022/03/30 01:09:06;;;;;;;7.57;3.35;;;;;;;;;;5073337;28;20119;-35
2022/03/30 01:11:32;;;;;;;6.75;3.45;;;;;;;;;;5073398;28;20099;-35
2022/03/30 01:13:57;;;;;;;7.38;3.58;;;;;;;;;;5073180;28;20772;-35
2022/03/30 01:16:23;;;;;;;10.27;3.30;;;;;;;;;;5071765;28;20066;-35
2022/03/30 01:18:49;;;;;;;7.32;4.05;;;;;;;;;;5072949;28;20033;-35
2022/03/30 01:21:15;;;;;;;7.70;4.20;;;;;;;;;;5072878;28;20081;-35
2022/03/30 01:23:41;;;;;;;11.45;5.18;;;;;;;;;;5072966;28;20390;-35
2022/03/30 01:26:07;;;;;;;8.85;3.42;;;;;;;;;;5072970;28;20092;-35
2022/03/30 01:28:32;;;;;;;9.73;4.25;;;;;;;;;;5072838;28;20036;-35
2022/03/30 01:33:44;;;;;;;5.78;3.60;;;;;;;;;;5072653;28;20039;-35
2022/03/30 01:36:09;;;;;;;5.13;3.08;;;;;;;;;;5072557;28;20043;-35
2022/03/30 01:38:35;;;;;;;9.25;3.15;;;;;;;;;;5072524;28;20036;-35
2022/03/30 01:41:00;;;;;;;8.02;3.97;;;;;;;;;;5072450;28;20028;-35
2022/03/30 01:43:28;;;;;;;7.03;2.97;;;;;;;;;;5072308;28;20036;-35
2022/03/30 01:45:54;;;;;;;5.65;2.90;;;;;;;;;;5072620;28;20020;-35
2022/03/30 01:48:19;;;;;;;8.40;3.63;;;;;;;;;;5072562;28;20082;-35
2022/03/30 01:50:44;;;;;;;7.10;3.85;;;;;;;;;;5072384;28;20093;-35
2022/03/30 01:53:10;;;;;;;9.65;4.18;;;;;;;;;;5071951;28;20052;-35
2022/03/30 01:55:35;;;;;;;6.97;3.40;;;;;;;;;;5072237;28;20021;-35
2022/03/30 01:58:01;;;;;;;7.53;3.75;;;;;;;;;;5072158;28;20107;-35
2022/03/30 02:00:27;;;;;;;6.75;3.10;;;;;;;;;;5072277;28;20106;-35
2022/03/30 02:02:53;;;;;;;9.65;3.80;;;;;;;;;;5072236;28;20498;-35
2022/03/30 02:05:19;;;;;;;6.28;4.05;;;;;;;;;;5072019;28;20017;-35
2022/03/30 02:07:44;;;;;;;9.18;3.55;;;;;;;;;;5071882;28;20029;-35
2022/03/30 02:10:10;;;;;;;6.63;3.75;;;;;;;;;;5072159;28;20012;-35
2022/03/30 02:12:36;;;;;;;7.18;4.18;;;;;;;;;;5071888;28;20417;-35
2022/03/30 02:15:01;;;;;;;6.53;3.38;;;;;;;;;;5071987;28;20090;-35
2022/03/30 02:17:27;;;;;;;4.53;3.08;;;;;;;;;;5071903;28;20535;-35
2022/03/30 02:19:54;;;;;;;8.85;3.92;;;;;;;;;;5071983;28;20367;-35
2022/03/30 02:22:21;;;;;;;6.45;3.65;;;;;;;;;;5071866;28;20040;-35
2022/03/30 02:24:46;;;;;;;7.93;3.45;;;;;;;;;;5072051;28;20091;-35
2022/03/30 02:27:12;;;;;;;7.22;3.85;;;;;;;;;;5071838;28;20060;-35
2022/03/30 02:29:37;;;;;;;6.75;4.05;;;;;;;;;;5071671;28;20048;-37
2022/03/30 02:32:03;;;;;;;5.97;3.35;;;;;;;;;;5071502;28;20423;-35
2022/03/30 02:34:29;;;;;;;15.65;3.90;;;;;;;;;;5071832;28;20013;-37
2022/03/30 02:36:54;;;;;;;12.85;3.55;;;;;;;;;;5071522;28;20032;-35
2022/03/30 02:39:19;;;;;;;8.93;3.80;;;;;;;;;;5071434;28;20029;-36
2022/03/30 02:41:45;;;;;;;5.05;3.22;;;;;;;;;;5070920;28;20037;-35
2022/03/30 02:44:12;;;;;;;8.10;2.85;;;;;;;;;;5071570;28;20033;-35
2022/03/30 02:46:38;;;;;;;6.20;3.08;;;;;;;;;;5071493;28;20059;-36
2022/03/30 02:49:04;;;;;;;11.85;4.13;;;;;;;;;;5071329;28;20529;-36
2022/03/30 02:51:30;;;;;;;7.78;3.95;;;;;;;;;;5071638;28;20056;-35
2022/03/30 02:53:55;;;;;;;10.80;3.70;;;;;;;;;;5071205;28;20406;-35
2022/03/30 02:56:21;;;;;;;8.45;3.92;;;;;;;;;;5071240;28;20497;-35
2022/03/30 02:58:46;;;;;;;6.47;3.70;;;;;;;;;;5071510;28;20024;-35
2022/03/30 03:01:12;;;;;;;16.90;4.60;;;;;;;;;;5071425;28;20523;-36
2022/03/30 03:03:37;;;;;;;6.10;3.83;;;;;;;;;;5071067;28;20123;-35
2022/03/30 03:06:03;;;;;;;11.00;4.13;;;;;;;;;;5071163;28;20027;-36
2022/03/30 03:08:28;;;;;;;10.80;4.40;;;;;;;;;;5071498;28;20044;-35
2022/03/30 03:10:54;;;;;;;10.07;3.60;;;;;;;;;;5071350;28;20540;-35
2022/03/30 03:13:19;;;;;;;7.88;3.40;;;;;;;;;;5071299;28;20047;-35
2022/03/30 03:15:46;;;;;;;6.35;3.63;;;;;;;;;;5071182;28;20466;-35
2022/03/30 03:18:12;;;;;;;10.43;3.80;;;;;;;;;;5070966;28;20543;-35
2022/03/30 03:20:40;;;;;;;13.27;4.30;;;;;;;;;;5071137;28;20037;-35
2022/03/30 03:23:06;;;;;;;17.33;4.20;;;;;;;;;;5070836;28;20686;-35
2022/03/30 03:25:33;;;;;;;5.63;3.58;;;;;;;;;;5071339;28;20060;-35
2022/03/30 03:27:59;;;;;;;6.82;3.70;;;;;;;;;;5069630;28;20013;-35
2022/03/30 03:30:24;;;;;;;4.78;3.30;;;;;;;;;;5071310;28;20036;-35
2022/03/30 03:32:50;;;;;;;4.80;3.42;;;;;;;;;;5070942;28;20060;-35
2022/03/30 03:35:16;;;;;;;8.77;3.95;;;;;;;;;;5070849;28;20024;-35
2022/03/30 03:37:41;;;;;;;3.97;2.90;;;;;;;;;;5070951;28;20024;-35
2022/03/30 03:40:07;;;;;;;5.90;3.10;;;;;;;;;;5070737;28;20021;-35
2022/03/30 03:42:33;;;;;;;11.68;4.32;;;;;;;;;;5071060;28;20028;-35
2022/03/30 03:44:58;;;;;;;6.38;3.33;;;;;;;;;;5070924;28;20158;-35
2022/03/30 03:47:24;;;;;;;15.02;3.83;;;;;;;;;;5070762;28;20111;-35
2022/03/30 03:49:50;;;;;;;8.25;5.20;;;;;;;;;;5070940;28;20020;-35
2022/03/30 03:52:15;;;;;;;7.03;4.00;;;;;;;;;;5070482;28;20028;-35
2022/03/30 03:54:41;;;;;;;8.55;4.50;;;;;;;;;;5073781;28;20033;-35
2022/03/30 03:57:07;;;;;;;8.02;3.85;;;;;;;;;;5074736;28;20035;-35
2022/03/30 03:59:32;;;;;;;11.65;4.43;;;;;;;;;;5074412;28;20043;-36
2022/03/30 04:01:58;;;;;;;8.05;3.90;;;;;;;;;;5074507;28;20027;-35
2022/03/30 04:04:24;;;;;;;12.98;4.13;;;;;;;;;;5073073;28;20040;-35
2022/03/30 04:06:49;;;;;;;8.13;3.63;;;;;;;;;;5074199;28;20023;-35
2022/03/30 04:09:15;;;;;;;4.85;3.85;;;;;;;;;;5072931;28;20074;-35
2022/03/30 04:11:40;;;;;;;6.82;3.40;;;;;;;;;;5074508;28;20024;-35
2022/03/30 04:14:06;;;;;;;12.88;5.70;;;;;;;;;;5074280;28;20479;-35
2022/03/30 04:16:31;;;;;;;10.00;4.32;;;;;;;;;;5074162;28;20059;-35
2022/03/30 04:18:57;;;;;;;13.90;4.63;;;;;;;;;;5074036;28;20105;-35
2022/03/30 04:21:22;;;;;;;12.18;4.55;;;;;;;;;;5073975;28;20111;-35
2022/03/30 04:23:48;;;;;;;7.45;3.97;;;;;;;;;;5072589;28;20114;-35
2022/03/30 04:26:14;;;;;;;11.38;4.60;;;;;;;;;;5073951;28;20024;-35
2022/03/30 04:28:40;;;;;;;11.40;5.13;;;;;;;;;;5073974;28;20421;-35
2022/03/30 04:31:12;;;;;;;16.50;4.50;;;;;;;;;;5073821;28;20502;-36
2022/03/30 04:33:38;;;;;;;12.35;3.97;;;;;;;;;;5073841;28;20024;-34
2022/03/30 04:36:04;;;;;;;11.00;4.10;;;;;;;;;;5073902;28;20024;-35
2022/03/30 04:38:30;;;;;;;7.38;4.70;;;;;;;;;;5074074;28;20052;-35
2022/03/30 04:40:55;;;;;;;6.95;4.25;;;;;;;;;;5073709;28;20482;-35
2022/03/30 04:43:21;;;;;;;5.72;4.40;;;;;;;;;;5071972;28;20049;-35
2022/03/30 04:45:46;;;;;;;9.75;4.75;;;;;;;;;;5073900;28;20024;-36
2022/03/30 04:48:12;;;;;;;12.30;5.35;;;;;;;;;;5073506;28;20490;-35
2022/03/30 04:50:37;;;;;;;6.38;4.32;;;;;;;;;;5073518;28;20013;-35
2022/03/30 04:53:02;;;;;;;10.80;5.13;;;;;;;;;;5073172;28;20143;-35
2022/03/30 04:55:28;;;;;;;8.02;4.85;;;;;;;;;;5073786;28;20150;-35
2022/03/30 04:57:55;;;;;;;13.85;4.78;;;;;;;;;;5073596;28;20052;-35
2022/03/30 05:00:20;;;;;;;10.73;4.78;;;;;;;;;;5073587;28;20036;-35
2022/03/30 05:02:45;;;;;;;7.70;4.50;;;;;;;;;;5073111;28;20398;-35
2022/03/30 05:05:11;;;;;;;12.80;5.45;;;;;;;;;;5072926;28;20024;-35
2022/03/30 05:07:37;;;;;;;9.32;5.18;;;;;;;;;;5073246;28;20493;-35
2022/03/30 05:10:05;;;;;;;16.05;5.93;;;;;;;;;;5073179;28;20047;-35
2022/03/30 05:12:31;;;;;;;11.60;5.20;;;;;;;;;;5073326;28;20032;-35
2022/03/30 05:14:56;;;;;;;10.45;5.00;;;;;;;;;;5073147;28;20099;-35
2022/03/30 05:17:22;;;;;;;9.88;5.07;;;;;;;;;;5073300;28;20028;-35
2022/03/30 05:19:48;;;;;;;8.63;5.22;;;;;;;;;;5072906;28;20426;-35
2022/03/30 05:22:14;;;;;;;9.00;5.07;;;;;;;;;;5072816;28;20462;-35
2022/03/30 05:24:40;;;;;;;10.00;5.35;;;;;;;;;;5072914;28;20028;-35
2022/03/30 05:27:05;;;;;;;9.07;5.05;;;;;;;;;;5072708;28;20059;-35
2022/03/30 05:29:31;;;;;;;14.70;4.88;;;;;;;;;;5073033;28;20522;-35
2022/03/30 05:31:56;;;;;;;8.20;4.95;;;;;;;;;;5072946;28;20051;-35
2022/03/30 05:34:22;;;;;;;15.13;5.63;;;;;;;;;;5072605;28;20024;-34
2022/03/30 05:36:48;;;;;;;14.30;6.03;;;;;;;;;;5072939;28;20020;-35
2022/03/30 05:39:13;;;;;;;11.15;5.22;;;;;;;;;;5072464;28;20470;-35
2022/03/30 05:41:40;;;;;;;9.15;5.25;;;;;;;;;;5072387;28;20032;-35
2022/03/30 05:44:05;;;;;;;14.00;5.53;;;;;;;;;;5072356;28;20540;-35
2022/03/30 05:46:31;;;;;;;7.10;5.40;;;;;;;;;;5072338;28;20040;-35
2022/03/30 05:48:56;;;;;;;10.13;4.85;;;;;;;;;;5072300;28;20021;-35
2022/03/30 05:51:22;;;;;;;8.82;4.93;;;;;;;;;;5072036;28;20094;-35
2022/03/30 05:53:47;;;;;;;7.38;4.85;;;;;;;;;;5072054;28;20057;-35
2022/03/30 05:56:13;;;;;;;8.27;5.70;;;;;;;;;;5072154;28;20040;-35
2022/03/30 05:58:38;;;;;;;14.52;5.28;;;;;;;;;;5072143;28;20027;-36
2022/03/30 06:01:04;;;;;;;15.85;5.93;;;;;;;;;;5072044;28;20035;-35
2022/03/30 06:03:30;;;;;;;18.90;6.80;;;;;;;;;;5071967;28;20028;-35
2022/03/30 06:05:56;;;;;;;11.05;5.78;;;;;;;;;;5072072;28;20471;-34
2022/03/30 06:08:21;;;;;;;11.95;5.13;;;;;;;;;;5070630;28;20028;-35
2022/03/30 06:10:48;;;;;;;10.40;5.30;;;;;;;;;;5072234;28;20386;-35
2022/03/30 06:13:13;;;;;;;12.60;5.65;;;;;;;;;;5072084;28;20425;-35
2022/03/30 06:15:39;;;;;;;9.20;5.88;;;;;;;;;;5071086;28;20020;-35
2022/03/30 06:18:10;;;;;;;12.18;4.97;;;;;;;;;;5071937;28;20057;-35
2022/03/30 06:20:36;;;;;;;8.82;6.15;;;;;;;;;;5072067;28;20028;-36
2022/03/30 06:23:01;;;;;;;13.68;5.47;;;;;;;;;;5071826;28;20037;-35
2022/03/30 06:25:27;;;;;;;11.82;6.40;;;;;;;;;;5071821;28;20539;-34
2022/03/30 06:27:54;;;;;;;11.07;5.15;;;;;;;;;;5071703;28;20026;-36
2022/03/30 06:30:20;;;;;;;8.25;4.45;;;;;;;;;;5071519;28;20028;-34
2022/03/30 06:32:49;;;;;;;10.73;4.53;;;;;;;;;;5071598;28;20067;-35
2022/03/30 06:35:17;;;;;;;8.23;4.88;;;;;;;;;;5071774;28;20107;-35
2022/03/30 06:37:43;;;;;;;24.95;6.93;;;;;;;;;;5071556;28;20017;-35
2022/03/30 06:40:11;;;;;;;15.98;5.82;;;;;;;;;;5071372;28;20383;-35
2022/03/30 06:42:37;;;;;;;15.10;7.15;;;;;;;;;;5071376;28;20032;-35
2022/03/30 06:45:06;;;;;;;13.68;5.60;;;;;;;;;;5070405;28;20414;-35
2022/03/30 06:47:32;;;;;;;9.45;4.95;;;;;;;;;;5071456;28;20012;-35
2022/03/30 06:49:58;;;;;;;10.23;4.70;;;;;;;;;;5071361;28;20085;-35
2022/03/30 06:52:24;;;;;;;9.00;6.07;;;;;;;;;;5069777;28;20052;-35
2022/03/30 06:54:50;;;;;;;8.13;4.55;;;;;;;;;;5071447;28;20033;-35
2022/03/30 06:57:16;;;;;;;11.98;5.35;;;;;;;;;;5071248;28;20471;-35
2022/03/30 06:59:42;;;;;;;13.02;5.45;;;;;;;;;;5071238;28;20467;-35
2022/03/30 07:02:08;;;;;;;10.05;4.93;;;;;;;;;;5071432;28;20036;-35
2022/03/30 07:04:35;;;;;;;14.68;5.97;;;;;;;;;;5071459;28;20765;-35
2022/03/30 07:12:31;;;;;;;14.13;5.63;;;;;;;;;;5071154;28;20032;-35
2022/03/30 07:14:57;;;;;;;7.55;4.78;;;;;;;;;;5071156;28;20027;-35
2022/03/30 07:17:23;;;;;;;11.82;6.32;;;;;;;;;;5071112;28;20131;-35
2022/03/30 07:19:48;;;;;;;8.15;5.63;;;;;;;;;;5071011;28;20444;-35
2022/03/30 07:22:14;;;;;;;19.58;5.35;;;;;;;;;;5070897;28;20107;-35
2022/03/30 07:24:40;;;;;;;10.00;4.57;;;;;;;;;;5071092;28;20027;-35
2022/03/30 07:27:07;;;;;;;8.07;4.78;;;;;;;;;;5071552;28;20037;-35
2022/03/30 07:29:32;;;;;;;9.27;5.45;;;;;;;;;;5075350;28;20020;-35
2022/03/30 07:31:58;;;;;;;10.43;4.95;;;;;;;;;;5074944;28;20025;-35
2022/03/30 07:34:24;;;;;;;8.70;5.18;;;;;;;;;;5074819;28;20025;-35
2022/03/30 07:36:50;;;;;;;15.27;5.95;;;;;;;;;;5074949;28;20032;-35
2022/03/30 07:39:15;;;;;;;9.55;4.53;;;;;;;;;;5074742;28;20028;-35
2022/03/30 07:41:41;;;;;;;11.43;4.72;;;;;;;;;;5074742;28;20036;-35
2022/03/30 07:44:10;;;;;;;14.15;6.15;;;;;;;;;;5074910;28;20086;-35
2022/03/30 07:46:36;;;;;;;12.30;5.57;;;;;;;;;;5074785;28;20021;-35
2022/03/30 07:49:01;;;;;;;16.77;5.40;;;;;;;;;;5074571;28;20039;-35
2022/03/30 07:51:29;;;;;;;10.90;5.28;;;;;;;;;;5074570;28;20032;-34
2022/03/30 07:53:55;;;;;;;9.63;5.05;;;;;;;;;;5074448;28;20051;-35
2022/03/30 07:56:21;;;;;;;8.32;5.85;;;;;;;;;;5074407;28;20166;-35
2022/03/30 07:58:48;;;;;;;9.35;6.05;;;;;;;;;;5056540;28;20111;-35
2022/03/30 08:01:16;;;;;;;10.82;5.47;;;;;;;;;;5074321;28;20016;-35
2022/03/30 08:03:43;;;;;;;14.30;5.15;;;;;;;;;;5074514;28;20098;-34
2022/03/30 08:06:09;;;;;;;16.88;6.65;;;;;;;;;;5074349;28;20078;-35
2022/03/30 08:08:35;;;;;;;11.48;6.28;;;;;;;;;;5074238;28;20028;-35
2022/03/30 08:11:02;;;;;;;8.55;5.32;;;;;;;;;;5074356;28;20670;-35
2022/03/30 08:13:27;;;;;;;11.70;5.47;;;;;;;;;;5074437;28;20383;-35
2022/03/30 08:15:53;;;;;;;13.68;6.07;;;;;;;;;;5074655;28;20025;-35
2022/03/30 08:18:18;;;;;;;11.65;5.97;;;;;;;;;;5074074;28;20090;-35
2022/03/30 08:23:29;;;;;;;14.40;5.85;;;;;;;;;;5072840;28;20041;-35
2022/03/30 08:25:54;;;;;;;7.78;5.35;;;;;;;;;;5074264;28;20074;-35
2022/03/30 08:28:20;;;;;;;12.57;6.45;;;;;;;;;;5073973;28;20562;-35
2022/03/30 08:30:48;;;;;;;14.27;6.03;;;;;;;;;;5074096;28;20016;-35
2022/03/30 08:33:16;;;;;;;15.13;6.20;;;;;;;;;;5073800;28;20070;-35
2022/03/30 08:35:44;;;;;;;16.52;5.93;;;;;;;;;;5073845;28;20035;-35
2022/03/30 08:38:10;;;;;;;14.57;6.95;;;;;;;;;;5073476;28;20032;-35
2022/03/30 08:40:36;;;;;;;13.80;6.38;;;;;;;;;;5073313;28;20021;-35
2022/03/30 08:43:03;;;;;;;9.50;5.95;;;;;;;;;;5073894;28;20037;-35
2022/03/30 08:45:29;;;;;;;19.30;6.40;;;;;;;;;;5073494;28;20017;-35
2022/03/30 08:47:54;;;;;;;10.43;5.95;;;;;;;;;;5073540;28;20052;-35
2022/03/30 08:50:20;;;;;;;11.30;6.28;;;;;;;;;;5073445;28;20029;-34
2022/03/30 08:52:49;;;;;;;14.88;6.50;;;;;;;;;;5073418;28;20055;-35
2022/03/30 08:55:16;;;;;;;11.00;6.25;;;;;;;;;;5073475;28;20475;-35
2022/03/30 08:57:43;;;;;;;12.25;6.47;;;;;;;;;;5073449;28;20382;-35
2022/03/30 09:00:13;;;;;;;14.00;7.20;;;;;;;;;;5073273;28;20024;-35
2022/03/30 09:02:40;;;;;;;18.25;5.97;;;;;;;;;;5073239;28;20375;-35
2022/03/30 09:05:15;;;;;;;15.70;6.75;;;;;;;;;;5073076;28;20017;-35
2022/03/30 09:07:42;;;;;;;13.07;6.75;;;;;;;;;;5073099;28;20020;-36
2022/03/30 09:10:21;;;;;;;9.75;6.25;;;;;;;;;;5073083;28;20111;-35
2022/03/30 09:12:48;;;;;;;14.25;5.90;;;;;;;;;;5073333;28;20386;-35
2022/03/30 09:15:15;;;;;;;15.85;6.75;;;;;;;;;;5072966;28;20479;-35
2022/03/30 09:17:41;;;;;;;14.15;6.78;;;;;;;;;;5073068;28;20099;-35
2022/03/30 09:20:11;;;;;;;13.77;6.43;;;;;;;;;;5072813;28;20017;-35
2022/03/30 09:22:43;;;;;;;11.65;7.28;;;;;;;;;;5072868;28;20060;-35
2022/03/30 09:25:11;;;;;;;26.50;5.97;;;;;;;;;;5072950;28;20032;-35
2022/03/30 09:27:41;;;;;;;13.80;6.90;;;;;;;;;;5073027;28;20027;-35
2022/03/30 09:30:09;;;;;;;11.20;6.88;;;;;;;;;;5072708;28;20585;-35
2022/03/30 09:32:35;;;;;;;18.05;6.65;;;;;;;;;;5072763;28;20021;-35
2022/03/30 09:35:01;;;;;;;9.15;5.65;;;;;;;;;;5072895;28;20100;-35
2022/03/30 09:37:27;;;;;;;12.73;7.00;;;;;;;;;;5072551;28;20062;-35
2022/03/30 09:39:54;;;;;;;17.52;8.20;;;;;;;;;;5072837;28;20029;-35
2022/03/30 09:42:20;;;;;;;14.40;8.70;;;;;;;;;;5072494;28;20031;-35
2022/03/30 09:44:48;;;;;;;16.50;8.25;;;;;;;;;;5072446;28;20542;-35
2022/03/30 09:47:15;;;;;;;12.18;8.15;;;;;;;;;;5072332;28;20045;-35
2022/03/30 09:49:45;;;;;;;16.42;7.78;;;;;;;;;;5072624;28;20020;-35
2022/03/30 09:52:19;;;;;;;13.07;7.90;;;;;;;;;;5072276;28;20036;-35
2022/03/30 09:57:39;;;;;;;13.80;7.50;;;;;;;;;;5062109;28;20071;-35
2022/03/30 10:00:09;;;;;;;14.15;7.75;;;;;;;;;;5072279;28;20024;-35
2022/03/30 10:02:38;;;;;;;12.98;7.20;;;;;;;;;;5072308;28;20044;-35
2022/03/30 10:05:05;;;;;;;12.70;7.55;;;;;;;;;;5072274;28;20055;-35
2022/03/30 10:07:31;;;;;;;17.42;6.90;;;;;;;;;;5072227;28;20024;-35
2022/03/30 10:09:58;;;;;;;13.88;6.70;;;;;;;;;;5070687;28;20475;-35
2022/03/30 10:12:26;;;;;;;11.48;6.45;;;;;;;;;;5072076;28;20040;-35
2022/03/30 10:14:53;;;;;;;30.85;8.57;;;;;;;;;;5072215;28;20036;-35
2022/03/30 10:17:19;;;;;;;13.75;7.30;;;;;;;;;;5071804;28;20035;-34
2022/03/30 10:19:49;;;;;;;19.00;7.22;;;;;;;;;;5072110;28;20032;-35
2022/03/30 10:22:33;;;;;;;17.58;8.07;;;;;;;;;;5071639;28;20036;-35
2022/03/30 10:25:05;;;;;;;14.15;7.63;;;;;;;;;;5071711;28;20025;-35
2022/03/30 10:27:42;;;;;;;13.38;7.90;;;;;;;;;;5071724;28;20043;-36
2022/03/30 10:30:12;;;;;;;12.45;8.10;;;;;;;;;;5071651;28;20140;-35
2022/03/30 10:32:39;;;;;;;14.80;8.43;;;;;;;;;;5071899;28;20108;-35
2022/03/30 10:35:09;;;;;;;20.08;8.25;;;;;;;;;;5071258;28;20386;-35
2022/03/30 10:37:37;;;;;;;15.95;7.68;;;;;;;;;;5071577;28;20440;-35
2022/03/30 10:40:06;;;;;;;15.02;8.63;;;;;;;;;;5071067;28;20063;-34
2022/03/30 10:42:49;;;;;;;20.10;8.45;;;;;;;;;;5071702;28;20455;-35
2022/03/30 10:45:17;;;;;;;11.38;7.00;;;;;;;;;;5071345;28;20028;-35
2022/03/30 10:48:02;;;;;;;15.20;8.55;;;;;;;;;;5071747;28;20027;-35
2022/03/30 10:50:33;;;;;;;16.75;8.60;;;;;;;;;;5071257;28;20115;-35
2022/03/30 10:52:59;;;;;;;15.07;8.55;;;;;;;;;;5071144;28;20135;-35
2022/03/30 10:55:25;;;;;;;19.63;9.27;;;;;;;;;;5071361;28;20028;-35
2022/03/30 10:57:57;;;;;;;14.60;8.02;;;;;;;;;;5071356;28;20243;-35
2022/03/30 11:00:27;;;;;;;15.55;8.60;;;;;;;;;;5071151;28;20579;-35
2022/03/30 11:03:14;;;;;;;19.15;8.73;;;;;;;;;;5070733;28;20501;-35
2022/03/30 11:05:57;;;;;;;14.38;8.18;;;;;;;;;;5071241;28;20146;-35
2022/03/30 11:08:34;;;;;;;16.23;8.02;;;;;;;;;;5071097;28;20052;-35
2022/03/30 11:11:01;;;;;;;15.57;8.98;;;;;;;;;;5071265;28;20035;-35
2022/03/30 11:13:30;;;;;;;15.85;9.48;;;;;;;;;;5071425;28;20020;-35
2022/03/30 11:15:59;;;;;;;16.20;9.68;;;;;;;;;;5071123;28;20446;-35
2022/03/30 11:18:28;;;;;;;18.77;8.07;;;;;;;;;;5071325;28;20036;-35
2022/03/30 11:21:11;;;;;;;17.35;8.63;;;;;;;;;;5071088;28;20044;-35
2022/03/30 11:23:37;;;;;;;14.43;7.40;;;;;;;;;;5071212;28;20094;-35
2022/03/30 11:26:03;;;;;;;15.23;7.72;;;;;;;;;;5071085;28;20481;-35
2022/03/30 11:28:36;;;;;;;14.38;8.18;;;;;;;;;;5071189;28;20402;-35
2022/03/30 11:31:06;;;;;;;13.90;7.47;;;;;;;;;;5070993;28;20087;-35
2022/03/30 11:33:35;;;;;;;18.38;8.63;;;;;;;;;;5070926;28;20036;-34
2022/03/30 11:36:03;;;;;;;15.18;8.20;;;;;;;;;;5070887;28;20078;-35
2022/03/30 11:38:40;;;;;;;16.42;8.05;;;;;;;;;;5070886;28;20355;-34
2022/03/30 11:41:09;;;;;;;12.48;7.70;;;;;;;;;;5070895;28;20035;-35
2022/03/30 11:45:12;;;;;;;13.38;7.60;;;;;;;;;;5070799;28;20028;-35
2022/03/30 11:46:25;;;;;;;18.23;7.60;;;;;;;;;;5070808;28;20521;-36
2022/03/30 11:48:50;;;;;;;11.25;7.05;;;;;;;;;;5069605;28;20486;-34
2022/03/30 11:51:17;;;;;;;11.45;6.07;;;;;;;;;;5070977;28;20085;-35
2022/03/30 11:53:42;;;;;;;10.32;6.15;;;;;;;;;;5070643;28;20036;-35
2022/03/30 11:56:12;;;;;;;9.32;5.78;;;;;;;;;;5070978;28;20081;-35
2022/03/30 11:58:43;;;;;;;8.00;4.97;;;;;;;;;;5070599;28;20063;-35
2022/03/30 12:01:13;;;;;;;13.15;5.28;;;;;;;;;;5069280;28;20390;-35
2022/03/30 12:03:40;;;;;;;11.07;5.68;;;;;;;;;;5070602;28;20331;-35
2022/03/30 12:06:07;;;;;;;10.15;5.95;;;;;;;;;;5070751;28;20028;-35
2022/03/30 12:08:41;;;;;;;7.30;4.63;;;;;;;;;;5070693;28;20024;-35
2022/03/30 12:11:07;;;;;;;10.93;5.05;;;;;;;;;;5070575;28;20032;-35
2022/03/30 12:13:34;;;;;;;8.95;5.43;;;;;;;;;;5070793;28;20138;-35
2022/03/30 12:16:10;;;;;;;12.35;5.13;;;;;;;;;;5074069;28;20028;-35
2022/03/30 12:18:42;;;;;;;6.90;4.97;;;;;;;;;;5074031;28;20024;-35
2022/03/30 12:21:08;;;;;;;12.00;5.90;;;;;;;;;;5074321;28;20383;-35
2022/03/30 12:23:34;;;;;;;9.93;5.93;;;;;;;;;;5073978;28;20394;-34
2022/03/30 12:26:15;;;;;;;11.02;6.50;;;;;;;;;;5074105;28;20028;-35
2022/03/30 12:28:44;;;;;;;14.05;5.63;;;;;;;;;;5072750;28;20085;-35
2022/03/30 12:31:14;;;;;;;9.30;5.32;;;;;;;;;;5074066;28;20370;-35
2022/03/30 12:33:47;;;;;;;11.73;5.40;;;;;;;;;;5072717;28;20047;-35
2022/03/30 12:36:16;;;;;;;14.00;6.20;;;;;;;;;;5073812;28;20028;-35
2022/03/30 12:38:42;;;;;;;9.20;6.07;;;;;;;;;;5074085;28;20497;-35
2022/03/30 12:41:07;;;;;;;7.80;5.43;;;;;;;;;;5073644;28;20033;-35
2022/03/30 12:43:33;;;;;;;11.60;6.30;;;;;;;;;;5073799;28;20497;-35
2022/03/30 12:46:03;;;;;;;12.25;5.57;;;;;;;;;;5073714;28;20029;-35
2022/03/30 12:48:49;;;;;;;16.98;5.18;;;;;;;;;;5073677;28;20028;-35
2022/03/30 12:51:21;;;;;;;10.07;6.38;;;;;;;;;;5073459;28;20021;-35
2022/03/30 12:53:48;;;;;;;8.55;5.38;;;;;;;;;;5073315;28;20049;-35
2022/03/30 12:56:17;;;;;;;10.13;5.57;;;;;;;;;;5073369;28;20037;-35
2022/03/30 12:58:50;;;;;;;11.90;5.40;;;;;;;;;;5073411;28;20041;-35
2022/03/30 13:01:30;;;;;;;11.90;5.30;;;;;;;;;;5072061;28;20021;-35
2022/03/30 13:03:56;;;;;;;14.55;7.30;;;;;;;;;;5073236;28;20486;-35
2022/03/30 13:06:23;;;;;;;7.82;5.35;;;;;;;;;;5073330;28;20028;-35
2022/03/30 13:09:07;;;;;;;7.28;4.75;;;;;;;;;;5073107;28;20024;-35
2022/03/30 13:11:39;;;;;;;12.35;4.57;;;;;;;;;;5073020;28;20070;-35
2022/03/30 13:14:10;;;;;;;7.20;4.75;;;;;;;;;;5073172;28;20028;-35
2022/03/30 13:16:37;;;;;;;5.90;4.20;;;;;;;;;;5072997;28;20036;-35
2022/03/30 13:19:04;;;;;;;7.75;5.75;;;;;;;;;;5073020;28;20560;-36
2022/03/30 13:21:41;;;;;;;7.70;4.82;;;;;;;;;;5072941;28;20059;-35
2022/03/30 13:24:12;;;;;;;6.30;4.32;;;;;;;;;;5073072;28;20097;-35
2022/03/30 13:26:39;;;;;;;12.25;4.57;;;;;;;;;;5072491;28;20052;-35
2022/03/30 13:29:07;;;;;;;10.40;4.72;;;;;;;;;;5072801;28;20025;-35
2022/03/30 13:31:42;;;;;;;7.97;4.78;;;;;;;;;;5072744;28;20025;-35
2022/03/30 13:34:12;;;;;;;10.63;4.90;;;;;;;;;;5072949;28;20364;-35
2022/03/30 13:36:45;;;;;;;5.38;3.83;;;;;;;;;;5072757;28;20021;-35
2022/03/30 13:39:12;;;;;;;8.98;4.70;;;;;;;;;;5072478;28;20127;-35
2022/03/30 13:41:48;;;;;;;9.32;5.07;;;;;;;;;;5072699;28;20016;-35
2022/03/30 13:44:14;;;;;;;8.15;4.30;;;;;;;;;;5072571;28;20040;-35
2022/03/30 13:46:44;;;;;;;9.65;5.35;;;;;;;;;;5072498;28;20019;-35
2022/03/30 13:49:12;;;;;;;12.63;4.93;;;;;;;;;;5072359;28;20145;-35
2022/03/30 13:51:37;;;;;;;11.55;5.55;;;;;;;;;;5072293;28;20081;-35
2022/03/30 13:54:04;;;;;;;8.68;5.65;;;;;;;;;;5072194;28;20052;-34
2022/03/30 13:56:30;;;;;;;9.35;5.55;;;;;;;;;;5072324;28;20070;-35
2022/03/30 13:58:59;;;;;;;5.93;4.95;;;;;;;;;;5072309;28;20032;-35
2022/03/30 14:01:26;;;;;;;7.75;4.65;;;;;;;;;;5072083;28;20048;-35
2022/03/30 14:03:52;;;;;;;11.07;4.45;;;;;;;;;;5072136;28;20028;-35
2022/03/30 14:06:18;;;;;;;9.63;4.05;;;;;;;;;;5072275;28;20012;-35
2022/03/30 14:08:44;;;;;;;7.43;4.43;;;;;;;;;;5072017;28;20082;-36
2022/03/30 14:11:10;;;;;;;7.05;4.20;;;;;;;;;;5071949;28;20056;-36
2022/03/30 14:13:36;;;;;;;6.30;3.97;;;;;;;;;;5071949;28;20076;-35
2022/03/30 14:16:02;;;;;;;5.22;3.42;;;;;;;;;;5071918;28;20017;-35
2022/03/30 14:18:29;;;;;;;10.15;4.40;;;;;;;;;;5071854;28;20082;-35
2022/03/30 14:20:57;;;;;;;7.28;3.33;;;;;;;;;;5071611;28;20020;-35
2022/03/30 14:23:23;;;;;;;4.88;3.40;;;;;;;;;;5071683;28;20036;-35
2022/03/30 14:25:49;;;;;;;6.18;3.50;;;;;;;;;;5070541;28;20016;-35
2022/03/30 14:28:15;;;;;;;5.05;3.40;;;;;;;;;;5071515;28;20111;-35
2022/03/30 14:30:42;;;;;;;8.52;3.75;;;;;;;;;;5071769;28;20025;-35
2022/03/30 14:33:08;;;;;;;7.93;4.40;;;;;;;;;;5070348;28;20036;-35
2022/03/30 14:35:35;;;;;;;8.43;4.25;;;;;;;;;;5071825;28;20031;-35
2022/03/30 14:38:05;;;;;;;11.77;3.78;;;;;;;;;;5071147;28;20024;-36
2022/03/30 14:40:33;;;;;;;8.98;4.03;;;;;;;;;;5071713;28;20025;-35
2022/03/30 14:42:59;;;;;;;6.68;3.70;;;;;;;;;;5071407;28;20036;-35
2022/03/30 14:45:25;;;;;;;4.70;3.25;;;;;;;;;;5071350;28;20052;-35
2022/03/30 14:47:51;;;;;;;5.80;3.90;;;;;;;;;;5071457;28;20488;-35
2022/03/30 14:50:17;;;;;;;8.43;3.00;;;;;;;;;;5071300;28;20033;-35